Costa Neoclassica — ICIC — position and weather

sailwx.info

Track history (hours):
 
Tides and Currents Weather Stations Pressure Air Temp Water Temp Dewpoint Dewpoint Depression Visibility Wind Speed Wind Dir Waves Ship Positions

Costa Neoclassica

Last reported at 2017-Apr-22 04:00 UTC. Time now 2017-Apr-24 03:24 UTC.
Position N 42°36' E 015°30'.

Length 220 m; draft 7.6 m.

Type: Passenger vessel. MMSI: 247819000.

Wind from 360 at 13 knots

Barometer 1030.0 mb
Air temperature 14.0 ° C
Dewpoint 6.3 ° C
Water temperature 17.0 ° C

Date/timePositionNaut miles runAvg speedWind from/ knotsBaromVisibWave heightAir tempDewpointWater temp
2017-Apr-22 04:00N 42°36' E 015°30'13319.3 360 / 131030.0 14.0 6.317.0
2017-Apr-21 21:05N 44°24' E 013°43'117.9
2017-Apr-21 21:00N 44°26' E 013°42'917.9
2017-Apr-21 20:30N 44°33' E 013°35'918.1
2017-Apr-21 20:00N 44°41' E 013°28'917.9
2017-Apr-21 19:30N 44°49' E 013°22'917.8
2017-Apr-21 19:00N 44°56' E 013°16'917.6
2017-Apr-21 18:30N 45°02' E 013°07'917.6
2017-Apr-21 18:00N 45°08' E 012°57'917.3
2017-Apr-21 17:30N 45°13' E 012°47'917.1
2017-Apr-21 17:00N 45°19' E 012°38'7424.2
2017-Apr-21 17:00N 45°12' E 012°36'1326.6 180 / 191025.0 15.0 5.317.0
2017-Apr-21 16:30N 45°24' E 012°29'5 9.7
2017-Apr-21 16:00N 45°26' E 012°23'3 5.4
2017-Apr-21 15:30N 45°26' E 012°19'1 1.1
2017-Apr-21 15:00N 45°26' E 012°19'0 0.0
2017-Apr-21 14:30N 45°26' E 012°19'0 0.0
2017-Apr-21 13:30N 45°26' E 012°19'0 0.0
2017-Apr-21 13:00N 45°26' E 012°19'0 0.0
2017-Apr-21 12:30N 45°26' E 012°19'0 0.0
2017-Apr-21 12:00N 45°26' E 012°19'0 0.0
2017-Apr-21 11:30N 45°26' E 012°19'0 0.0
2017-Apr-21 11:00N 45°26' E 012°19'0 0.0
2017-Apr-21 10:30N 45°26' E 012°19'0 0.0
2017-Apr-21 10:00N 45°26' E 012°19'0 0.0
2017-Apr-21 09:30N 45°26' E 012°19'0 0.0
2017-Apr-21 09:00N 45°26' E 012°19'0 0.0
2017-Apr-21 08:30N 45°26' E 012°19'0 0.0
2017-Apr-21 08:00N 45°26' E 012°19'0 0.0
2017-Apr-21 07:30N 45°26' E 012°19'0 0.0
2017-Apr-21 07:00N 45°26' E 012°19'0 0.0
2017-Apr-21 06:30N 45°26' E 012°19'1 1.3
2017-Apr-21 06:01N 45°26' E 012°19'3 5.1
2017-Apr-21 05:30N 45°26' E 012°23'5 9.2
2017-Apr-21 05:01N 45°24' E 012°29'612.5
2017-Apr-21 04:31N 45°20' E 012°36'815.4
2017-Apr-21 04:00N 45°15' E 012°44'816.1
2017-Apr-21 03:30N 45°10' E 012°53'816.9
2017-Apr-21 03:00N 45°05' E 013°03'816.8
2017-Apr-21 02:30N 45°01' E 013°13'816.9
2017-Apr-21 02:00N 44°56' E 013°23'503107.2
2017-Apr-21 02:00N 44°54' E 012°12'55113.5 060 / 131024.0 9.0 4.917.0
2017-Apr-21 01:30N 44°49' E 013°29'816.9
2017-Apr-21 01:00N 44°42' E 013°36'917.2
2017-Apr-21 00:30N 44°35' E 013°42'917.2
2017-Apr-21 00:00N 44°27' E 013°49'917.3
2017-Apr-20 23:30N 44°20' E 013°55'10516.2
2017-Apr-20 17:00N 43°00' E 015°30'143 9.0 050 / 521025.0 13.0 9.417.0
2017-Apr-20 01:00N 41°48' E 018°18'24314.3 320 / 301021.0 17.0
2017-Apr-19 08:00N 38°00' E 020°06'7615.2 220 1023.0 14.0 6.417.0
2017-Apr-19 03:00N 36°54' E 020°54'3818.8 220 / 191023.0 14.0 6.417.0
2017-Apr-19 01:00N 36°30' E 021°30'11913.0 200 / 131023.0 14.0 6.417.0
2017-Apr-18 15:46N 37°29' E 023°40'516.8
2017-Apr-18 15:30N 37°33' E 023°41'816.0
2017-Apr-18 15:00N 37°41' E 023°41'816.3
2017-Apr-18 14:30N 37°48' E 023°37'8 7.6
2017-Apr-18 13:28N 37°56' E 023°38'0 0.0
2017-Apr-18 12:58N 37°56' E 023°38'0 0.0
2017-Apr-18 12:28N 37°56' E 023°38'0 0.0
2017-Apr-18 11:58N 37°56' E 023°38'0 0.0
2017-Apr-18 11:28N 37°56' E 023°38'0 0.0
2017-Apr-18 10:58N 37°56' E 023°38'0 0.0
2017-Apr-18 10:28N 37°56' E 023°38'0 0.0
2017-Apr-18 09:58N 37°56' E 023°38'0 0.0
2017-Apr-18 09:11N 37°56' E 023°38'0 0.0
2017-Apr-18 08:59N 37°56' E 023°38'0 0.0
2017-Apr-18 08:29N 37°56' E 023°38'0 0.0
2017-Apr-18 07:59N 37°56' E 023°38'0 0.0
2017-Apr-18 07:28N 37°56' E 023°38'0 0.0
2017-Apr-18 06:58N 37°56' E 023°38'0 0.0
2017-Apr-18 06:28N 37°56' E 023°38'0 0.0
2017-Apr-18 05:58N 37°56' E 023°38'0 0.0
2017-Apr-18 05:28N 37°56' E 023°38'0 0.0
2017-Apr-18 04:59N 37°56' E 023°38'0 0.0
2017-Apr-18 04:29N 37°56' E 023°38'1 2.9
2017-Apr-18 04:00N 37°56' E 023°37'1 1.7
2017-Apr-18 03:31N 37°55' E 023°37'3 6.0
2017-Apr-18 03:00N 37°52' E 023°39'816.4
2017-Apr-18 02:30N 37°45' E 023°43'815.5
2017-Apr-18 02:00N 37°39' E 023°49'815.8
2017-Apr-18 01:30N 37°33' E 023°56'915.0
2017-Apr-18 00:56N 37°25' E 024°01'715.6
2017-Apr-18 00:30N 37°19' E 024°02'1714.6
2017-Apr-17 23:19N 37°01' E 024°04'327 6.9
2017-Apr-16 00:00N 40°30' E 018°42'27111.3 120 / 281013.010.8 17.013.716.0
2017-Apr-15 00:00N 43°42' E 014°24'3319.2 150 / 151012.010.8 18.016.416.0
2017-Apr-14 22:16N 44°10' E 013°59'517.5
2017-Apr-14 22:00N 44°13' E 013°55'917.6
2017-Apr-14 21:30N 44°21' E 013°48'917.5
2017-Apr-14 21:00N 44°28' E 013°41'917.4
2017-Apr-14 20:30N 44°35' E 013°35'917.3
2017-Apr-14 20:01N 44°43' E 013°28'917.2
2017-Apr-14 19:31N 44°50' E 013°22'917.6
2017-Apr-14 19:01N 44°57' E 013°15'917.2
2017-Apr-14 18:30N 45°03' E 013°06'817.1
2017-Apr-14 18:01N 45°08' E 012°56'181075.4
2017-Apr-14 18:00N 44°54' E 013°12'2654.0 180 / 91019.0 18.0 9.217.0
2017-Apr-14 17:30N 45°13' E 012°47'816.6
2017-Apr-14 17:00N 45°19' E 012°38'815.9
2017-Apr-14 16:30N 45°24' E 012°29'5 9.9
2017-Apr-14 16:00N 45°26' E 012°23'3 5.4
2017-Apr-14 15:30N 45°26' E 012°19'1 1.2
2017-Apr-14 15:00N 45°26' E 012°19'0 0.0
2017-Apr-14 14:30N 45°26' E 012°19'0 0.0
2017-Apr-14 13:30N 45°26' E 012°19'0 0.0
2017-Apr-14 13:00N 45°26' E 012°19'0 0.0
2017-Apr-14 12:30N 45°26' E 012°19'0 0.0
2017-Apr-14 12:00N 45°26' E 012°19'0 0.0
2017-Apr-14 11:30N 45°26' E 012°19'0 0.0
2017-Apr-14 11:00N 45°26' E 012°19'0 0.0
2017-Apr-14 10:30N 45°26' E 012°19'0 0.0
2017-Apr-14 10:00N 45°26' E 012°19'0 0.0
2017-Apr-14 09:30N 45°26' E 012°19'0 0.0
2017-Apr-14 09:00N 45°26' E 012°19'0 0.0
2017-Apr-14 08:30N 45°26' E 012°19'0 0.0
2017-Apr-14 08:00N 45°26' E 012°19'0 0.0
2017-Apr-14 07:30N 45°26' E 012°19'0 0.0
2017-Apr-14 07:00N 45°26' E 012°19'0 0.1
2017-Apr-14 06:30N 45°26' E 012°19'2 3.3
2017-Apr-14 06:01N 45°26' E 012°21'3 6.8
2017-Apr-14 05:30N 45°25' E 012°26'5 9.5
2017-Apr-14 05:00N 45°23' E 012°32'713.8
2017-Apr-14 04:30N 45°18' E 012°39'816.2
2017-Apr-14 04:01N 45°12' E 012°46'9537.5
2017-Apr-14 04:00N 45°18' E 012°36'1836.3 1019.0 16.010.817.0
2017-Apr-14 03:30N 45°08' E 012°56'917.4
2017-Apr-14 03:00N 45°03' E 013°07'917.7
2017-Apr-14 02:30N 44°58' E 013°17'917.2
2017-Apr-14 02:00N 44°52' E 013°26'10633.5
2017-Apr-14 02:00N 44°54' E 013°12'1735.2 140 / 21019.0 16.012.717.0
2017-Apr-14 01:30N 44°45' E 013°33'917.2
2017-Apr-14 01:00N 44°38' E 013°39'917.3
2017-Apr-14 00:30N 44°31' E 013°46'917.3
2017-Apr-14 00:00N 44°24' E 013°52'816.6
2017-Apr-13 23:30N 44°17' E 013°59'816.5
2017-Apr-13 23:00N 44°10' E 014°05'151669.2
2017-Apr-13 23:00N 44°18' E 013°48'2347.0 080 / 101012.010.8 16.014.413.0
2017-Apr-13 22:30N 44°02' E 014°11'917.3
2017-Apr-13 22:00N 43°55' E 014°18'110 5.2
2017-Apr-13 01:00N 42°48' E 016°18'   320 / 201014.010.8 16.012.715.0
Track history (hours):
 
Tides and Currents Weather Stations Pressure Air Temp Water Temp Dewpoint Dewpoint Depression Visibility Wind Speed Wind Dir Waves Ship Positions

Costa Neoclassica

Last reported at 2017-Apr-22 04:00 UTC. Time now 2017-Apr-24 03:24 UTC.
Position N 42°36' E 015°30'.

Length 220 m; draft 7.6 m.

Type: Passenger vessel. MMSI: 247819000.

Wind from 360 at 13 knots

Barometer 1030.0 mb
Air temperature 14.0 ° C
Dewpoint 6.3 ° C
Water temperature 17.0 ° C

Date/timePositionNaut miles runAvg speedWind from/ knotsBaromVisibWave heightAir tempDewpointWater temp
2017-Apr-22 04:00N 42°36' E 015°30'13319.3 360 / 131030.0 14.0 6.317.0
2017-Apr-21 21:05N 44°24' E 013°43'117.9
2017-Apr-21 21:00N 44°26' E 013°42'917.9
2017-Apr-21 20:30N 44°33' E 013°35'918.1
2017-Apr-21 20:00N 44°41' E 013°28'917.9
2017-Apr-21 19:30N 44°49' E 013°22'917.8
2017-Apr-21 19:00N 44°56' E 013°16'917.6
2017-Apr-21 18:30N 45°02' E 013°07'917.6
2017-Apr-21 18:00N 45°08' E 012°57'917.3
2017-Apr-21 17:30N 45°13' E 012°47'917.1
2017-Apr-21 17:00N 45°19' E 012°38'7424.2
2017-Apr-21 17:00N 45°12' E 012°36'1326.6 180 / 191025.0 15.0 5.317.0
2017-Apr-21 16:30N 45°24' E 012°29'5 9.7
2017-Apr-21 16:00N 45°26' E 012°23'3 5.4
2017-Apr-21 15:30N 45°26' E 012°19'1 1.1
2017-Apr-21 15:00N 45°26' E 012°19'0 0.0
2017-Apr-21 14:30N 45°26' E 012°19'0 0.0
2017-Apr-21 13:30N 45°26' E 012°19'0 0.0
2017-Apr-21 13:00N 45°26' E 012°19'0 0.0
2017-Apr-21 12:30N 45°26' E 012°19'0 0.0
2017-Apr-21 12:00N 45°26' E 012°19'0 0.0
2017-Apr-21 11:30N 45°26' E 012°19'0 0.0
2017-Apr-21 11:00N 45°26' E 012°19'0 0.0
2017-Apr-21 10:30N 45°26' E 012°19'0 0.0
2017-Apr-21 10:00N 45°26' E 012°19'0 0.0
2017-Apr-21 09:30N 45°26' E 012°19'0 0.0
2017-Apr-21 09:00N 45°26' E 012°19'0 0.0
2017-Apr-21 08:30N 45°26' E 012°19'0 0.0
2017-Apr-21 08:00N 45°26' E 012°19'0 0.0
2017-Apr-21 07:30N 45°26' E 012°19'0 0.0
2017-Apr-21 07:00N 45°26' E 012°19'0 0.0
2017-Apr-21 06:30N 45°26' E 012°19'1 1.3
2017-Apr-21 06:01N 45°26' E 012°19'3 5.1
2017-Apr-21 05:30N 45°26' E 012°23'5 9.2
2017-Apr-21 05:01N 45°24' E 012°29'612.5
2017-Apr-21 04:31N 45°20' E 012°36'815.4
2017-Apr-21 04:00N 45°15' E 012°44'816.1
2017-Apr-21 03:30N 45°10' E 012°53'816.9
2017-Apr-21 03:00N 45°05' E 013°03'816.8
2017-Apr-21 02:30N 45°01' E 013°13'816.9
2017-Apr-21 02:00N 44°56' E 013°23'503107.2
2017-Apr-21 02:00N 44°54' E 012°12'55113.5 060 / 131024.0 9.0 4.917.0
2017-Apr-21 01:30N 44°49' E 013°29'816.9
2017-Apr-21 01:00N 44°42' E 013°36'917.2
2017-Apr-21 00:30N 44°35' E 013°42'917.2
2017-Apr-21 00:00N 44°27' E 013°49'917.3
2017-Apr-20 23:30N 44°20' E 013°55'10516.2
2017-Apr-20 17:00N 43°00' E 015°30'143 9.0 050 / 521025.0 13.0 9.417.0
2017-Apr-20 01:00N 41°48' E 018°18'24314.3 320 / 301021.0 17.0
2017-Apr-19 08:00N 38°00' E 020°06'7615.2 220 1023.0 14.0 6.417.0
2017-Apr-19 03:00N 36°54' E 020°54'3818.8 220 / 191023.0 14.0 6.417.0
2017-Apr-19 01:00N 36°30' E 021°30'11913.0 200 / 131023.0 14.0 6.417.0
2017-Apr-18 15:46N 37°29' E 023°40'516.8
2017-Apr-18 15:30N 37°33' E 023°41'816.0
2017-Apr-18 15:00N 37°41' E 023°41'816.3
2017-Apr-18 14:30N 37°48' E 023°37'8 7.6
2017-Apr-18 13:28N 37°56' E 023°38'0 0.0
2017-Apr-18 12:58N 37°56' E 023°38'0 0.0
2017-Apr-18 12:28N 37°56' E 023°38'0 0.0
2017-Apr-18 11:58N 37°56' E 023°38'0 0.0
2017-Apr-18 11:28N 37°56' E 023°38'0 0.0
2017-Apr-18 10:58N 37°56' E 023°38'0 0.0
2017-Apr-18 10:28N 37°56' E 023°38'0 0.0
2017-Apr-18 09:58N 37°56' E 023°38'0 0.0
2017-Apr-18 09:11N 37°56' E 023°38'0 0.0
2017-Apr-18 08:59N 37°56' E 023°38'0 0.0
2017-Apr-18 08:29N 37°56' E 023°38'0 0.0
2017-Apr-18 07:59N 37°56' E 023°38'0 0.0
2017-Apr-18 07:28N 37°56' E 023°38'0 0.0
2017-Apr-18 06:58N 37°56' E 023°38'0 0.0
2017-Apr-18 06:28N 37°56' E 023°38'0 0.0
2017-Apr-18 05:58N 37°56' E 023°38'0 0.0
2017-Apr-18 05:28N 37°56' E 023°38'0 0.0
2017-Apr-18 04:59N 37°56' E 023°38'0 0.0
2017-Apr-18 04:29N 37°56' E 023°38'1 2.9
2017-Apr-18 04:00N 37°56' E 023°37'1 1.7
2017-Apr-18 03:31N 37°55' E 023°37'3 6.0
2017-Apr-18 03:00N 37°52' E 023°39'816.4
2017-Apr-18 02:30N 37°45' E 023°43'815.5
2017-Apr-18 02:00N 37°39' E 023°49'815.8
2017-Apr-18 01:30N 37°33' E 023°56'915.0
2017-Apr-18 00:56N 37°25' E 024°01'715.6
2017-Apr-18 00:30N 37°19' E 024°02'1714.6
2017-Apr-17 23:19N 37°01' E 024°04'327 6.9
2017-Apr-16 00:00N 40°30' E 018°42'27111.3 120 / 281013.010.8 17.013.716.0
2017-Apr-15 00:00N 43°42' E 014°24'3319.2 150 / 151012.010.8 18.016.416.0
2017-Apr-14 22:16N 44°10' E 013°59'517.5
2017-Apr-14 22:00N 44°13' E 013°55'917.6
2017-Apr-14 21:30N 44°21' E 013°48'917.5
2017-Apr-14 21:00N 44°28' E 013°41'917.4
2017-Apr-14 20:30N 44°35' E 013°35'917.3
2017-Apr-14 20:01N 44°43' E 013°28'917.2
2017-Apr-14 19:31N 44°50' E 013°22'917.6
2017-Apr-14 19:01N 44°57' E 013°15'917.2
2017-Apr-14 18:30N 45°03' E 013°06'817.1
2017-Apr-14 18:01N 45°08' E 012°56'181075.4
2017-Apr-14 18:00N 44°54' E 013°12'2654.0 180 / 91019.0 18.0 9.217.0
2017-Apr-14 17:30N 45°13' E 012°47'816.6
2017-Apr-14 17:00N 45°19' E 012°38'815.9
2017-Apr-14 16:30N 45°24' E 012°29'5 9.9
2017-Apr-14 16:00N 45°26' E 012°23'3 5.4
2017-Apr-14 15:30N 45°26' E 012°19'1 1.2
2017-Apr-14 15:00N 45°26' E 012°19'0 0.0
2017-Apr-14 14:30N 45°26' E 012°19'0 0.0
2017-Apr-14 13:30N 45°26' E 012°19'0 0.0
2017-Apr-14 13:00N 45°26' E 012°19'0 0.0
2017-Apr-14 12:30N 45°26' E 012°19'0 0.0
2017-Apr-14 12:00N 45°26' E 012°19'0 0.0
2017-Apr-14 11:30N 45°26' E 012°19'0 0.0
2017-Apr-14 11:00N 45°26' E 012°19'0 0.0
2017-Apr-14 10:30N 45°26' E 012°19'0 0.0
2017-Apr-14 10:00N 45°26' E 012°19'0 0.0
2017-Apr-14 09:30N 45°26' E 012°19'0 0.0
2017-Apr-14 09:00N 45°26' E 012°19'0 0.0
2017-Apr-14 08:30N 45°26' E 012°19'0 0.0
2017-Apr-14 08:00N 45°26' E 012°19'0 0.0
2017-Apr-14 07:30N 45°26' E 012°19'0 0.0
2017-Apr-14 07:00N 45°26' E 012°19'0 0.1
2017-Apr-14 06:30N 45°26' E 012°19'2 3.3
2017-Apr-14 06:01N 45°26' E 012°21'3 6.8
2017-Apr-14 05:30N 45°25' E 012°26'5 9.5
2017-Apr-14 05:00N 45°23' E 012°32'713.8
2017-Apr-14 04:30N 45°18' E 012°39'816.2
2017-Apr-14 04:01N 45°12' E 012°46'9537.5
2017-Apr-14 04:00N 45°18' E 012°36'1836.3 1019.0 16.010.817.0
2017-Apr-14 03:30N 45°08' E 012°56'917.4
2017-Apr-14 03:00N 45°03' E 013°07'917.7
2017-Apr-14 02:30N 44°58' E 013°17'917.2
2017-Apr-14 02:00N 44°52' E 013°26'10633.5
2017-Apr-14 02:00N 44°54' E 013°12'1735.2 140 / 21019.0 16.012.717.0
2017-Apr-14 01:30N 44°45' E 013°33'917.2
2017-Apr-14 01:00N 44°38' E 013°39'917.3
2017-Apr-14 00:30N 44°31' E 013°46'917.3
2017-Apr-14 00:00N 44°24' E 013°52'816.6
2017-Apr-13 23:30N 44°17' E 013°59'816.5
2017-Apr-13 23:00N 44°10' E 014°05'151669.2
2017-Apr-13 23:00N 44°18' E 013°48'2347.0 080 / 101012.010.8 16.014.413.0
2017-Apr-13 22:30N 44°02' E 014°11'917.3
2017-Apr-13 22:00N 43°55' E 014°18'110 5.2
2017-Apr-13 01:00N 42°48' E 016°18'   320 / 201014.010.8 16.012.715.0

Dump ship's entire track history